Time;durP1;ratioP1;P1;durP2;ratioP2;P2;SDS_P1;SDS_P2;PMS_P1;PMS_P2;Temp;Humidity;BMP_temperature;BMP_pressure;BME280_temperature;BME280_humidity;BME280_pressure;Samples;Min_cycle;Max_cycle;Signal;HPM_P1;HPM_P2
2022/04/17 00:01:51;;;;;;;9.70;6.30;;;;;;;10.11;44.50;102924.22;4898040;29;20044;-48
2022/04/17 00:04:18;;;;;;;12.32;6.88;;;;;;;10.17;43.96;102914.34;4890237;29;20048;-51
2022/04/17 00:06:46;;;;;;;11.40;6.78;;;;;;;10.19;44.42;102921.25;4896246;29;20124;-49
2022/04/17 00:09:14;;;;;;;12.18;6.70;;;;;;;10.28;44.02;102926.50;4899877;29;20411;-48
2022/04/17 00:11:42;;;;;;;12.05;6.90;;;;;;;10.32;43.65;102916.84;4898779;29;20048;-48
2022/04/17 00:14:12;;;;;;;10.93;6.30;;;;;;;10.29;43.29;102920.00;4897579;29;20112;-43
2022/04/17 00:16:40;;;;;;;11.30;6.50;;;;;;;10.21;43.62;102908.28;4899614;29;20391;-48
2022/04/17 00:19:08;;;;;;;10.73;6.10;;;;;;;10.14;43.48;102912.91;4898763;29;20452;-48
2022/04/17 00:21:36;;;;;;;13.40;6.40;;;;;;;10.07;43.51;102906.63;4897757;29;20408;-47
2022/04/17 00:24:04;;;;;;;11.60;6.35;;;;;;;9.99;43.73;102910.44;4898496;29;20053;-49
2022/04/17 00:26:32;;;;;;;12.30;6.65;;;;;;;10.03;43.76;102921.75;4899479;29;20139;-49
2022/04/17 00:29:00;;;;;;;11.82;6.78;;;;;;;10.02;43.79;102917.34;4899387;29;20049;-49
2022/04/17 00:31:27;;;;;;;15.23;7.13;;;;;;;9.94;43.99;102923.00;4898574;29;20048;-49
2022/04/17 00:33:55;;;;;;;11.80;6.45;;;;;;;9.90;43.93;102913.59;4898734;29;20047;-47
2022/04/17 00:36:22;;;;;;;12.63;7.50;;;;;;;9.84;43.65;102911.69;4899681;29;20048;-49
2022/04/17 00:38:50;;;;;;;13.90;7.07;;;;;;;9.73;43.89;102911.28;4897534;29;20044;-49
2022/04/17 00:41:18;;;;;;;12.48;6.57;;;;;;;9.63;43.80;102910.88;4898525;29;20051;-49
2022/04/17 00:43:47;;;;;;;13.35;6.72;;;;;;;9.58;44.16;102907.97;4898909;29;20067;-49
2022/04/17 00:46:16;;;;;;;12.70;7.45;;;;;;;9.55;44.40;102911.13;4899378;29;20136;-49
2022/04/17 00:48:43;;;;;;;11.20;6.63;;;;;;;9.60;44.03;102916.75;4898415;29;20048;-46
2022/04/17 00:51:12;;;;;;;13.98;7.15;;;;;;;9.65;43.85;102914.25;4900049;29;20059;-48
2022/04/17 00:53:41;;;;;;;12.02;7.35;;;;;;;9.70;43.19;102917.16;4899041;29;20058;-48
2022/04/17 00:56:09;;;;;;;15.63;8.18;;;;;;;9.67;43.45;102911.28;4898428;29;20572;-49
2022/04/17 00:58:38;;;;;;;12.65;6.93;;;;;;;9.59;43.35;102907.75;4898489;29;20049;-52
2022/04/17 01:01:05;;;;;;;13.32;7.22;;;;;;;9.57;43.11;102909.00;4897796;29;20131;-50
2022/04/17 01:03:33;;;;;;;12.05;7.50;;;;;;;9.55;43.16;102908.41;4897481;29;20044;-49
2022/04/17 01:06:01;;;;;;;14.68;7.85;;;;;;;9.59;43.63;102899.56;4898856;29;20076;-48
2022/04/17 01:08:30;;;;;;;11.93;7.22;;;;;;;9.68;43.21;102908.38;4893488;29;20048;-50
2022/04/17 01:10:59;;;;;;;14.05;7.20;;;;;;;9.72;42.85;102909.63;4880359;29;20583;-46
2022/04/17 01:13:27;;;;;;;16.00;7.32;;;;;;;9.71;42.23;102910.66;4897513;29;20055;-48
2022/04/17 01:15:58;;;;;;;13.45;7.22;;;;;;;9.70;42.33;102914.44;4898381;29;20052;-49
2022/04/17 01:18:26;;;;;;;13.93;7.13;;;;;;;9.72;41.85;102915.09;4896776;29;20456;-48
2022/04/17 01:20:54;;;;;;;13.43;6.50;;;;;;;9.66;42.13;102910.47;4898775;29;20061;-49
2022/04/17 01:28:54;;;;;;;13.38;6.97;;;;;;;9.73;41.74;102908.56;4879854;29;20053;-49
2022/04/17 01:31:27;;;;;;;15.45;7.20;;;;;;;9.68;42.09;102907.53;4879993;29;20049;-49
2022/04/17 01:33:55;;;;;;;11.73;7.15;;;;;;;9.65;41.67;102902.53;4895417;29;20072;-47
2022/04/17 01:36:22;;;;;;;12.48;6.70;;;;;;;9.62;41.32;102913.81;4897863;29;20051;-48
2022/04/17 01:38:50;;;;;;;11.18;6.63;;;;;;;9.55;42.02;102908.41;4897070;29;20049;-47
2022/04/17 01:41:18;;;;;;;14.13;6.63;;;;;;;9.51;41.64;102907.13;4897404;29;20037;-48
2022/04/17 01:43:47;;;;;;;12.10;7.13;;;;;;;9.44;41.99;102904.41;4897667;29;20068;-49
2022/04/17 01:46:14;;;;;;;12.55;6.55;;;;;;;9.37;41.97;102915.28;4898858;29;20057;-48
2022/04/17 01:48:42;;;;;;;12.60;6.80;;;;;;;9.29;42.46;102909.22;4898849;29;20088;-47
2022/04/17 01:51:10;;;;;;;12.68;6.50;;;;;;;9.23;42.97;102915.47;4897944;29;20484;-48
2022/04/17 01:53:37;;;;;;;12.93;6.80;;;;;;;9.18;43.32;102908.78;4898250;29;20399;-49
2022/04/17 01:56:05;;;;;;;13.55;6.57;;;;;;;9.18;43.30;102905.22;4898078;29;20075;-48
2022/04/17 01:58:33;;;;;;;11.82;6.72;;;;;;;9.22;43.21;102906.50;4896994;29;20068;-48
2022/04/17 02:01:00;;;;;;;11.65;6.70;;;;;;;9.25;43.26;102897.06;4896037;29;20036;-49
2022/04/17 02:03:28;;;;;;;11.75;6.40;;;;;;;9.30;42.82;102895.38;4897074;29;20104;-48
2022/04/17 02:05:56;;;;;;;14.10;7.40;;;;;;;9.32;42.88;102898.75;4897870;29;20041;-50
2022/04/17 02:08:24;;;;;;;11.80;6.60;;;;;;;9.30;43.39;102889.94;4898056;29;20450;-49
2022/04/17 02:10:52;;;;;;;11.55;6.70;;;;;;;9.30;42.86;102884.50;4896547;29;20040;-48
2022/04/17 02:13:20;;;;;;;10.82;6.55;;;;;;;9.27;43.48;102884.94;4879287;29;20045;-50
2022/04/17 02:15:52;;;;;;;10.55;6.60;;;;;;;9.25;42.73;102892.47;4878266;29;20048;-50
2022/04/17 02:18:20;;;;;;;12.38;6.65;;;;;;;9.19;43.27;102885.16;4893481;29;20037;-49
2022/04/17 02:20:48;;;;;;;11.57;6.15;;;;;;;9.15;43.29;102892.03;4897905;29;20048;-49
2022/04/17 02:23:16;;;;;;;12.07;6.15;;;;;;;9.15;42.94;102889.31;4883264;29;20416;-51
2022/04/17 02:25:43;;;;;;;12.32;6.47;;;;;;;9.14;43.29;102884.94;4879266;29;20145;-47
2022/04/17 02:28:13;;;;;;;11.18;6.45;;;;;;;9.09;43.24;102884.69;4888425;29;20506;-48
2022/04/17 02:30:41;;;;;;;10.88;6.22;;;;;;;9.11;43.51;102896.22;4884377;29;20052;-50
2022/04/17 02:33:08;;;;;;;12.65;6.38;;;;;;;9.13;43.04;102894.97;4897027;29;20037;-48
2022/04/17 02:35:37;;;;;;;11.27;6.30;;;;;;;9.06;43.72;102893.28;4897154;29;20075;-50
2022/04/17 02:38:04;;;;;;;10.73;6.50;;;;;;;9.04;43.93;102896.19;4896184;29;20139;-52
2022/04/17 02:40:32;;;;;;;10.02;6.15;;;;;;;9.02;43.69;102887.44;4898018;29;20048;-45
2022/04/17 02:43:00;;;;;;;10.43;6.45;;;;;;;9.00;44.09;102885.97;4895304;29;20053;-48
2022/04/17 02:45:28;;;;;;;11.35;6.15;;;;;;;8.99;43.69;102887.00;4896513;29;20488;-48
2022/04/17 02:47:55;;;;;;;10.35;6.05;;;;;;;9.00;43.51;102885.97;4899000;29;20048;-48
2022/04/17 02:50:23;;;;;;;13.93;6.65;;;;;;;8.95;43.39;102876.53;4901075;29;20560;-50
2022/04/17 02:52:55;;;;;;;9.63;6.03;;;;;;;8.88;44.55;102888.44;4901108;29;20048;-50
2022/04/17 02:55:23;;;;;;;12.38;6.07;;;;;;;8.78;44.46;102877.13;4899437;29;20052;-47
2022/04/17 02:57:52;;;;;;;10.40;6.80;;;;;;;8.73;44.98;102872.28;4900236;29;20036;-48
2022/04/17 03:00:21;;;;;;;11.95;6.63;;;;;;;8.64;44.57;102871.66;4901076;29;20500;-48
2022/04/17 03:08:14;;;;;;;11.05;6.82;;;;;;;8.46;45.50;102869.50;4900797;29;20060;-48
2022/04/17 03:10:48;;;;;;;9.88;6.13;;;;;;;8.48;46.08;102875.56;4900193;29;20049;-49
2022/04/17 03:13:16;;;;;;;11.07;6.55;;;;;;;8.58;46.34;102877.06;4900880;29;20480;-49
2022/04/17 03:15:44;;;;;;;11.18;6.15;;;;;;;8.64;46.04;102874.38;4898023;29;20040;-50
2022/04/17 03:18:12;;;;;;;11.48;6.78;;;;;;;8.58;46.11;102868.91;4900877;29;20056;-51
2022/04/17 03:20:39;;;;;;;9.73;6.45;;;;;;;8.46;46.43;102876.81;4900959;29;20352;-48
2022/04/17 03:23:07;;;;;;;12.10;6.32;;;;;;;8.37;46.46;102873.41;4900846;29;20048;-49
2022/04/17 03:25:34;;;;;;;13.45;6.72;;;;;;;8.29;46.18;102876.28;4899656;29;20056;-50
2022/04/17 03:28:02;;;;;;;15.30;6.72;;;;;;;8.26;46.44;102868.56;4900185;29;20523;-49
2022/04/17 03:30:30;;;;;;;14.38;6.88;;;;;;;8.21;46.60;102860.19;4899335;29;20572;-49
2022/04/17 03:32:59;;;;;;;11.27;6.65;;;;;;;8.17;46.88;102870.59;4883130;29;20128;-50
2022/04/17 03:35:27;;;;;;;17.10;6.40;;;;;;;8.22;47.65;102864.56;4899236;29;20443;-47
2022/04/17 03:37:55;;;;;;;11.43;6.88;;;;;;;8.23;46.72;102866.25;4881784;29;20527;-51
2022/04/17 03:40:22;;;;;;;13.95;6.45;;;;;;;8.20;47.02;102855.78;4882969;29;20052;-49
2022/04/17 03:42:50;;;;;;;15.07;6.63;;;;;;;8.17;46.99;102854.28;4900120;29;20063;-47
2022/04/17 03:45:17;;;;;;;14.27;7.43;;;;;;;8.12;47.31;102854.06;4900246;29;20043;-52
2022/04/17 03:47:45;;;;;;;14.38;7.30;;;;;;;8.03;46.71;102852.56;4899320;29;20052;-49
2022/04/17 03:50:13;;;;;;;13.63;6.90;;;;;;;7.94;46.89;102845.59;4900504;29;20051;-52
2022/04/17 03:52:45;;;;;;;12.73;6.47;;;;;;;7.84;47.67;102856.84;4885525;29;20043;-52
2022/04/17 03:55:13;;;;;;;13.40;6.95;;;;;;;7.76;47.59;102846.16;4900122;29;20045;-49
2022/04/17 03:57:41;;;;;;;17.80;7.90;;;;;;;7.71;47.52;102856.75;4898836;29;20045;-51
2022/04/17 04:00:11;;;;;;;16.02;6.45;;;;;;;7.76;48.09;102862.44;4899235;29;20052;-48
2022/04/17 04:02:40;;;;;;;12.25;7.20;;;;;;;7.88;47.98;102858.13;4899497;29;20048;-50
2022/04/17 04:05:08;;;;;;;15.30;7.65;;;;;;;7.90;47.55;102856.88;4898673;29;20055;-47
2022/04/17 04:07:37;;;;;;;12.35;6.10;;;;;;;7.90;47.36;102850.63;4868038;29;20401;-47
2022/04/17 04:10:05;;;;;;;11.35;6.93;;;;;;;7.96;47.35;102847.13;4879625;29;20047;-48
2022/04/17 04:12:34;;;;;;;13.65;6.88;;;;;;;7.96;47.28;102855.25;4897070;29;20046;-48
2022/04/17 04:15:02;;;;;;;13.63;6.68;;;;;;;7.82;47.44;102848.91;4898712;29;20400;-51
2022/04/17 04:17:30;;;;;;;13.40;7.13;;;;;;;7.67;48.35;102843.59;4897136;29;20492;-52
2022/04/17 04:19:57;;;;;;;13.98;7.10;;;;;;;7.59;48.96;102841.03;4898193;29;20408;-49
2022/04/17 04:22:25;;;;;;;12.52;6.65;;;;;;;7.52;48.58;102840.13;4899883;29;20052;-50
2022/04/17 04:24:53;;;;;;;15.65;6.68;;;;;;;7.51;49.23;102824.09;4898891;29;20056;-52
2022/04/17 04:30:08;;;;;;;13.57;6.32;;;;;;;7.54;48.80;102823.69;4881120;29;20063;-50
2022/04/17 04:32:35;;;;;;;18.95;7.13;;;;;;;7.56;49.06;102819.72;4896728;29;20419;-47
2022/04/17 04:35:04;;;;;;;16.73;7.38;;;;;;;7.54;48.65;102819.09;4899308;29;20053;-46
2022/04/17 04:37:32;;;;;;;11.52;6.63;;;;;;;7.51;48.97;102814.06;4898169;29;20040;-46
2022/04/17 04:40:00;;;;;;;12.60;6.28;;;;;;;7.49;49.37;102816.13;4899181;29;20492;-50
2022/04/17 04:42:28;;;;;;;14.48;6.60;;;;;;;7.53;49.38;102812.00;4898832;29;20083;-50
2022/04/17 04:47:44;;;;;;;11.90;6.60;;;;;;;7.57;48.65;102813.25;4892754;29;20075;-49
2022/04/17 04:50:12;;;;;;;9.88;5.95;;;;;;;7.53;49.17;102820.13;4897907;29;20104;-52
2022/04/17 04:52:39;;;;;;;11.00;6.72;;;;;;;7.42;49.54;102815.25;4898747;29;20045;-51
2022/04/17 04:55:07;;;;;;;10.93;6.30;;;;;;;7.36;49.87;102821.44;4897967;29;20052;-49
2022/04/17 04:57:38;;;;;;;12.25;6.35;;;;;;;7.33;49.80;102822.69;4897813;29;20554;-50
2022/04/17 05:00:07;;;;;;;12.32;5.90;;;;;;;7.30;49.93;102816.84;4899208;29;20055;-49
2022/04/17 05:02:36;;;;;;;11.18;6.25;;;;;;;7.27;50.02;102819.94;4897687;29;20051;-50
2022/04/17 05:05:06;;;;;;;10.50;6.53;;;;;;;7.21;50.40;102814.25;4897207;29;20489;-47
2022/04/17 05:07:34;;;;;;;11.20;5.97;;;;;;;7.25;50.36;102814.72;4897912;29;20048;-51
2022/04/17 05:10:02;;;;;;;12.45;6.78;;;;;;;7.28;50.57;102824.31;4898096;29;20045;-46
2022/04/17 05:12:30;;;;;;;10.85;6.30;;;;;;;7.22;51.06;102821.38;4898567;29;20079;-53
2022/04/17 05:14:58;;;;;;;10.77;6.25;;;;;;;7.19;51.28;102820.91;4896590;29;20504;-49
2022/04/17 05:17:26;;;;;;;12.23;6.20;;;;;;;7.22;50.82;102821.38;4898509;29;20048;-52
2022/04/17 05:19:53;;;;;;;11.27;6.38;;;;;;;7.32;50.75;102821.03;4898853;29;20052;-51
2022/04/17 05:22:30;;;;;;;10.63;6.00;;;;;;;7.42;51.01;102821.50;4898671;29;20048;-49
2022/04/17 05:24:58;;;;;;;11.25;6.07;;;;;;;7.42;50.61;102817.97;4897614;29;20052;-53
2022/04/17 05:27:27;;;;;;;13.40;6.82;;;;;;;7.44;50.76;102824.84;4898520;29;20899;-54
2022/04/17 05:29:55;;;;;;;10.35;5.70;;;;;;;7.44;51.32;102829.47;4897882;29;20044;-46
2022/04/17 05:32:22;;;;;;;10.20;5.88;;;;;;;7.43;50.77;102827.75;4898648;29;20044;-52
2022/04/17 05:34:50;;;;;;;11.63;6.10;;;;;;;7.44;50.52;102826.75;4898019;29;20045;-48
2022/04/17 05:37:17;;;;;;;10.93;5.80;;;;;;;7.46;51.25;102824.69;4897379;29;20075;-52
2022/04/17 05:39:46;;;;;;;10.20;5.65;;;;;;;7.52;50.96;102825.75;4898353;29;20055;-48
2022/04/17 05:42:13;;;;;;;12.88;6.10;;;;;;;7.54;51.01;102821.78;4897889;29;20048;-48
2022/04/17 05:44:46;;;;;;;10.90;5.57;;;;;;;7.58;50.98;102814.94;4897241;29;20084;-50
2022/04/17 05:47:13;;;;;;;9.18;5.88;;;;;;;7.58;50.81;102814.94;4895940;29;20056;-50
2022/04/17 05:49:41;;;;;;;12.60;6.03;;;;;;;7.60;51.29;102821.03;4898137;29;20051;-52
2022/04/17 05:52:09;;;;;;;9.18;5.40;;;;;;;7.69;50.74;102822.50;4898070;29;20048;-46
2022/04/17 05:54:37;;;;;;;11.60;5.82;;;;;;;7.74;50.81;102812.94;4897044;29;20056;-46
2022/04/17 05:57:04;;;;;;;11.52;5.35;;;;;;;7.77;50.16;102823.38;4891054;29;20048;-45
2022/04/17 05:59:32;;;;;;;9.27;4.90;;;;;;;7.80;50.32;102818.41;4883808;29;20052;-44
2022/04/17 06:02:01;;;;;;;8.95;4.72;;;;;;;7.78;50.35;102825.09;4211264;29;9999808;-52
2022/04/17 06:04:29;;;;;;;8.68;5.00;;;;;;;7.80;50.29;102823.84;4893230;29;20496;-53
2022/04/17 06:06:56;;;;;;;9.48;5.60;;;;;;;7.82;49.97;102835.34;4885365;29;20083;-51
2022/04/17 06:09:24;;;;;;;8.10;4.47;;;;;;;7.86;50.54;102824.91;4888496;29;20103;-49
2022/04/17 06:11:51;;;;;;;13.85;5.35;;;;;;;7.93;49.94;102828.50;4887856;29;20515;-51
2022/04/17 06:14:19;;;;;;;8.65;4.90;;;;;;;8.02;50.42;102826.47;4887002;29;20049;-52
2022/04/17 06:16:47;;;;;;;8.60;5.00;;;;;;;8.05;49.91;102832.31;4893140;29;20048;-48
2022/04/17 06:19:15;;;;;;;10.50;5.13;;;;;;;8.05;49.80;102820.63;4893679;29;20053;-51
2022/04/17 06:21:43;;;;;;;10.13;5.03;;;;;;;8.02;50.30;102821.88;4888968;29;20132;-53
2022/04/17 06:24:10;;;;;;;8.82;4.70;;;;;;;8.04;50.79;102819.78;4891893;29;20055;-49
2022/04/17 06:26:39;;;;;;;8.73;4.50;;;;;;;8.13;50.01;102817.75;4895873;29;20051;-48
2022/04/17 06:29:08;;;;;;;7.65;4.63;;;;;;;8.20;49.89;102817.75;4894885;29;20045;-48
2022/04/17 06:31:35;;;;;;;8.68;4.65;;;;;;;8.30;50.05;102818.22;4890532;29;20526;-49
2022/04/17 06:34:03;;;;;;;12.40;5.03;;;;;;;8.31;49.95;102814.47;4896551;29;20127;-50
2022/04/17 06:36:31;;;;;;;8.23;4.05;;;;;;;8.38;49.70;102809.06;4887958;29;20041;-54
2022/04/17 06:38:58;;;;;;;7.80;4.65;;;;;;;8.44;49.84;102806.41;4888748;29;20045;-47
2022/04/17 06:41:26;;;;;;;9.43;4.45;;;;;;;8.48;49.45;102804.94;4880510;29;20052;-45
2022/04/17 06:43:54;;;;;;;10.15;4.60;;;;;;;8.55;49.53;102809.56;4893708;29;20130;-45
2022/04/17 06:46:21;;;;;;;7.07;4.20;;;;;;;8.60;49.37;102801.63;4899776;29;20048;-45
2022/04/17 06:48:49;;;;;;;9.48;4.72;;;;;;;8.62;49.47;102802.25;4900088;29;20528;-44
2022/04/17 06:51:22;;;;;;;9.13;4.00;;;;;;;8.64;49.21;102805.59;4900325;29;20081;-52
2022/04/17 06:53:50;;;;;;;7.63;4.03;;;;;;;8.62;49.23;102811.25;4900836;29;20492;-51
2022/04/17 06:56:21;;;;;;;6.95;4.40;;;;;;;8.67;48.83;102802.47;4899331;29;20416;-53
2022/04/17 06:58:49;;;;;;;8.70;4.20;;;;;;;8.74;49.50;102806.03;4898444;29;20044;-48
2022/04/17 07:01:17;;;;;;;8.60;4.13;;;;;;;8.77;49.22;102816.47;4897695;29;20044;-51
2022/04/17 07:03:45;;;;;;;8.52;4.25;;;;;;;8.78;49.04;102804.59;4899852;29;20105;-52
2022/04/17 07:06:14;;;;;;;8.77;4.40;;;;;;;8.80;48.79;102809.78;4894953;29;20070;-53
2022/04/17 07:08:41;;;;;;;10.10;4.70;;;;;;;8.82;49.09;102808.53;4898462;29;20064;-49
2022/04/17 07:11:09;;;;;;;9.02;5.07;;;;;;;8.82;49.47;102803.09;4896939;29;20076;-51
2022/04/17 07:13:39;;;;;;;8.05;4.53;;;;;;;8.84;48.63;102803.75;4897597;29;20056;-47
2022/04/17 07:16:07;;;;;;;7.55;4.10;;;;;;;8.86;48.78;102804.38;4889194;29;20044;-50
2022/04/17 07:18:35;;;;;;;9.18;4.10;;;;;;;8.89;49.02;102790.34;4895310;29;20045;-51
2022/04/17 07:21:03;;;;;;;9.93;4.50;;;;;;;8.95;48.60;102797.69;4893459;29;20423;-50
2022/04/17 07:23:30;;;;;;;8.75;4.45;;;;;;;8.99;48.89;102794.53;4898082;29;20066;-53
2022/04/17 07:25:58;;;;;;;5.90;3.60;;;;;;;8.99;48.19;102795.38;4894742;29;20048;-49
2022/04/17 07:28:26;;;;;;;10.13;4.88;;;;;;;9.01;49.04;102787.84;4880811;29;20420;-48
2022/04/17 07:30:53;;;;;;;6.55;3.90;;;;;;;9.05;49.18;102799.16;4895565;29;20055;-49
2022/04/17 07:33:22;;;;;;;11.10;4.38;;;;;;;9.10;49.18;102786.59;4900068;29;20044;-48
2022/04/17 07:35:49;;;;;;;11.63;4.30;;;;;;;9.15;48.50;102789.53;4881884;29;20500;-47
2022/04/17 07:38:17;;;;;;;9.05;4.45;;;;;;;9.21;48.54;102792.44;4882197;29;20507;-51
2022/04/17 07:40:45;;;;;;;10.40;4.03;;;;;;;9.19;47.49;102789.97;4881989;29;20445;-50
2022/04/17 07:43:13;;;;;;;6.05;3.67;;;;;;;9.17;47.52;102782.00;4881203;29;20075;-48
2022/04/17 07:45:40;;;;;;;6.78;3.85;;;;;;;9.18;47.13;102788.25;4897082;29;20041;-50
2022/04/17 07:48:08;;;;;;;8.38;4.05;;;;;;;9.22;47.41;102789.53;4900071;29;20065;-47
2022/04/17 07:50:36;;;;;;;6.55;3.80;;;;;;;9.25;47.95;102789.09;4900046;29;20195;-47
2022/04/17 07:53:04;;;;;;;8.00;4.20;;;;;;;9.33;47.68;102778.03;4900008;29;20052;-44
2022/04/17 07:55:31;;;;;;;6.13;3.10;;;;;;;9.37;46.99;102776.53;4898567;29;20160;-43
2022/04/17 07:58:12;;;;;;;6.15;3.45;;;;;;;9.43;47.44;102780.31;4899829;29;20041;-46
2022/04/17 08:00:46;;;;;;;7.30;3.65;;;;;;;9.47;46.97;102770.66;4899952;29;20036;-45
2022/04/17 08:03:24;;;;;;;5.82;3.10;;;;;;;9.51;46.94;102771.91;4900049;29;20105;-50
2022/04/17 08:05:51;;;;;;;7.72;3.85;;;;;;;9.56;47.30;102774.00;4898214;29;20068;-49
2022/04/17 08:08:19;;;;;;;5.75;3.40;;;;;;;9.63;47.16;102769.38;4898974;29;20059;-52
2022/04/17 08:10:47;;;;;;;8.02;3.45;;;;;;;9.68;46.74;102766.00;4899902;29;20051;-49
2022/04/17 08:13:15;;;;;;;6.82;4.05;;;;;;;9.71;47.11;102766.41;4899596;29;20049;-47
2022/04/17 08:15:43;;;;;;;6.72;3.30;;;;;;;9.76;45.42;102765.75;4899353;29;20159;-45
2022/04/17 08:18:11;;;;;;;5.65;3.40;;;;;;;9.78;45.33;102769.09;4899467;29;20165;-44
2022/04/17 08:20:39;;;;;;;8.70;3.33;;;;;;;9.80;45.06;102769.72;4899698;29;20045;-45
2022/04/17 08:23:06;;;;;;;7.57;3.60;;;;;;;9.82;44.33;102763.00;4899467;29;20504;-46
2022/04/17 08:25:34;;;;;;;6.53;3.35;;;;;;;9.88;44.81;102760.47;4898108;29;20041;-51
2022/04/17 08:28:02;;;;;;;7.78;3.65;;;;;;;9.95;44.64;102761.28;4899612;29;20055;-53
2022/04/17 08:30:31;;;;;;;7.03;3.50;;;;;;;9.99;44.74;102759.81;4898107;29;20045;-51
2022/04/17 08:33:00;;;;;;;6.00;3.30;;;;;;;10.01;44.42;102755.00;4899365;29;20052;-49
2022/04/17 08:35:28;;;;;;;11.55;4.22;;;;;;;10.08;44.62;102763.09;4897978;29;20470;-48
2022/04/17 08:38:05;;;;;;;10.10;3.97;;;;;;;10.12;45.12;102762.47;4899297;29;20055;-50
2022/04/17 08:40:33;;;;;;;5.95;3.42;;;;;;;10.18;44.70;102761.59;4898587;29;20083;-44
2022/04/17 08:43:00;;;;;;;6.95;3.33;;;;;;;10.23;44.56;102758.22;4898841;29;20064;-44
2022/04/17 08:45:28;;;;;;;8.25;3.42;;;;;;;10.23;44.03;102759.06;4898211;29;20055;-44
2022/04/17 08:47:56;;;;;;;7.65;3.30;;;;;;;10.24;44.17;102755.25;4899073;29;20045;-45
2022/04/17 08:50:24;;;;;;;11.68;4.63;;;;;;;10.27;44.11;102753.16;4898908;29;20048;-44
2022/04/17 08:52:53;;;;;;;9.45;3.67;;;;;;;10.32;45.02;102751.50;4897747;29;20045;-45
2022/04/17 08:55:21;;;;;;;5.43;3.40;;;;;;;10.41;44.16;102750.19;4882334;29;20037;-52
2022/04/17 08:57:49;;;;;;;7.10;3.40;;;;;;;10.42;44.06;102743.69;4898737;29;20044;-48
2022/04/17 09:00:17;;;;;;;9.20;4.03;;;;;;;10.43;44.86;102747.22;4897563;29;20048;-46
2022/04/17 09:02:46;;;;;;;4.85;2.97;;;;;;;10.45;44.60;102748.69;4897836;29;20045;-48
2022/04/17 09:05:18;;;;;;;7.85;3.58;;;;;;;10.53;45.00;102742.13;4879781;29;20045;-52
2022/04/17 09:07:53;;;;;;;11.98;3.90;;;;;;;10.60;45.22;102737.47;4879974;29;20529;-48
2022/04/17 09:10:29;;;;;;;7.95;3.60;;;;;;;10.69;45.06;102740.75;4880029;29;20132;-50
2022/04/17 09:12:59;;;;;;;7.07;3.65;;;;;;;10.74;44.70;102737.38;4879908;29;20049;-50
2022/04/17 09:15:31;;;;;;;8.68;4.00;;;;;;;10.83;44.90;102738.78;4897117;29;20045;-50
2022/04/17 09:17:59;;;;;;;5.82;3.05;;;;;;;10.84;44.00;102737.69;4897116;29;20389;-50
2022/04/17 09:20:27;;;;;;;7.10;3.70;;;;;;;10.83;44.02;102742.31;4897588;29;20419;-47
2022/04/17 09:22:58;;;;;;;7.13;3.75;;;;;;;10.89;43.64;102740.59;4898187;29;20032;-51
2022/04/17 09:25:27;;;;;;;7.90;3.33;;;;;;;10.95;43.49;102736.16;4897193;29;20416;-50
2022/04/17 09:27:57;;;;;;;5.88;3.35;;;;;;;11.00;42.85;102730.84;4898471;29;20045;-48
2022/04/17 09:30:31;;;;;;;9.93;3.78;;;;;;;11.01;42.93;102727.88;4898451;29;20508;-51
2022/04/17 09:33:03;;;;;;;6.20;3.20;;;;;;;11.04;43.08;102722.00;4898267;29;20483;-52
2022/04/17 09:35:30;;;;;;;8.27;3.38;;;;;;;11.07;43.55;102715.25;4879863;29;20044;-50
2022/04/17 09:37:59;;;;;;;7.93;3.45;;;;;;;11.09;42.84;102708.53;4879426;29;20518;-51
2022/04/17 09:40:28;;;;;;;7.32;3.50;;;;;;;11.16;43.24;102702.16;4879678;29;20551;-48
2022/04/17 09:43:14;;;;;;;9.50;3.78;;;;;;;11.17;42.16;102701.94;4879261;29;20061;-50
2022/04/17 09:46:01;;;;;;;10.33;3.67;;;;;;;11.24;43.06;102707.34;4897264;29;20041;-51
2022/04/17 09:48:31;;;;;;;9.95;3.53;;;;;;;11.30;42.49;102699.06;4898059;29;20127;-47
2022/04/17 09:51:00;;;;;;;7.25;3.50;;;;;;;11.34;42.27;102698.63;4898261;29;20045;-50
2022/04/17 09:53:37;;;;;;;5.88;3.35;;;;;;;11.36;42.77;102700.06;4897960;29;20048;-48
2022/04/17 09:56:06;;;;;;;5.75;3.55;;;;;;;11.39;42.52;102690.56;4897304;29;20051;-48
2022/04/17 09:58:38;;;;;;;10.27;3.53;;;;;;;11.44;42.42;102686.09;4897795;29;20049;-48
2022/04/17 10:01:19;;;;;;;7.93;3.90;;;;;;;11.51;42.23;102677.84;4898192;29;20045;-49
2022/04/17 10:03:48;;;;;;;6.50;3.50;;;;;;;11.55;42.20;102673.59;4897735;29;20619;-48
2022/04/17 10:06:16;;;;;;;6.28;3.38;;;;;;;11.69;40.92;102671.53;4896953;29;20111;-47
2022/04/17 10:08:44;;;;;;;9.73;3.53;;;;;;;11.75;40.81;102664.31;4898203;29;20052;-51
2022/04/17 10:11:14;;;;;;;7.70;3.63;;;;;;;11.77;41.36;102665.75;4896583;29;20041;-51
2022/04/17 10:13:42;;;;;;;5.55;3.33;;;;;;;11.75;41.25;102651.47;4897769;29;20499;-48
2022/04/17 10:16:10;;;;;;;7.43;3.50;;;;;;;11.77;41.44;102652.09;4898153;29;20056;-50
2022/04/17 10:18:41;;;;;;;8.35;3.80;;;;;;;11.79;41.32;102646.41;4896686;29;20045;-49
2022/04/17 10:21:09;;;;;;;7.80;3.55;;;;;;;11.83;41.35;102642.13;4897986;29;20174;-48
2022/04/17 10:23:42;;;;;;;6.97;3.83;;;;;;;11.88;41.69;102634.09;4897545;29;20041;-49
2022/04/17 10:26:13;;;;;;;11.35;4.32;;;;;;;11.90;41.29;102637.44;4896808;29;20052;-47
2022/04/17 10:28:46;;;;;;;7.68;4.07;;;;;;;11.94;42.64;102628.53;4897754;29;20048;-49
2022/04/17 10:31:19;;;;;;;6.35;3.50;;;;;;;11.97;41.46;102626.41;4896938;29;20052;-50
2022/04/17 10:34:20;;;;;;;9.20;4.55;;;;;;;11.99;43.69;102624.28;4896375;29;20052;-51
2022/04/17 10:37:22;;;;;;;5.82;3.60;;;;;;;12.01;40.96;102617.53;4896767;29;20041;-48
2022/04/17 10:39:53;;;;;;;7.28;3.80;;;;;;;12.14;41.51;102617.31;4897638;29;20041;-48
2022/04/17 10:42:23;;;;;;;5.72;3.83;;;;;;;12.28;41.42;102612.47;4896506;29;20055;-50
2022/04/17 10:45:04;;;;;;;8.10;3.80;;;;;;;12.44;40.28;102604.66;4896593;29;20072;-50
2022/04/17 10:47:33;;;;;;;7.30;3.50;;;;;;;12.56;39.97;102602.75;4897751;29;20041;-52
2022/04/17 10:50:07;;;;;;;7.07;3.45;;;;;;;12.57;40.50;102607.13;4896856;29;20052;-47
2022/04/17 10:52:36;;;;;;;7.35;3.17;;;;;;;12.56;39.50;102594.56;4897200;29;20123;-50
2022/04/17 10:55:09;;;;;;;6.53;3.25;;;;;;;12.59;38.41;102591.34;4896535;29;20048;-48
2022/04/17 10:57:48;;;;;;;8.05;3.30;;;;;;;12.59;38.45;102596.81;4897631;29;20083;-51
2022/04/17 11:00:36;;;;;;;5.63;3.30;;;;;;;12.67;39.92;102587.41;4897297;29;20059;-47
2022/04/17 11:03:22;;;;;;;5.82;3.28;;;;;;;12.73;37.79;102586.47;4897099;29;20045;-50
2022/04/17 11:06:09;;;;;;;5.55;3.20;;;;;;;12.95;37.49;102579.28;4897691;29;20127;-49
2022/04/17 11:08:56;;;;;;;8.02;3.90;;;;;;;13.07;37.00;102571.06;4897952;29;20103;-48
2022/04/17 11:11:35;;;;;;;9.45;4.05;;;;;;;13.09;37.55;102574.38;4881546;29;20049;-52
2022/04/17 11:14:16;;;;;;;6.35;3.22;;;;;;;13.11;37.66;102561.28;4881023;29;20045;-53
2022/04/17 11:16:54;;;;;;;7.30;2.95;;;;;;;13.16;38.33;102564.13;4881245;29;20512;-49
2022/04/17 11:19:27;;;;;;;8.07;3.58;;;;;;;13.28;38.45;102563.31;4892865;29;20102;-50
2022/04/17 11:21:56;;;;;;;6.63;3.30;;;;;;;13.28;36.73;102561.38;4899593;29;20074;-51
2022/04/17 11:24:24;;;;;;;6.43;3.30;;;;;;;13.30;35.70;102553.78;4900694;29;20048;-47
2022/04/17 11:26:55;;;;;;;5.75;3.00;;;;;;;13.36;35.80;102546.47;4900780;29;20076;-48
2022/04/17 11:29:47;;;;;;;7.30;3.47;;;;;;;13.33;37.69;102545.06;4900508;29;20062;-49
2022/04/17 11:32:17;;;;;;;7.03;3.72;;;;;;;13.31;37.14;102543.63;4899692;29;20123;-50
2022/04/17 11:34:52;;;;;;;5.80;3.30;;;;;;;13.32;37.47;102545.28;4900793;29;20052;-47
2022/04/17 11:37:25;;;;;;;4.50;3.03;;;;;;;13.36;36.74;102541.81;4900649;29;20124;-50
2022/04/17 11:39:55;;;;;;;6.00;3.28;;;;;;;13.46;35.34;102522.00;4898959;29;20040;-49
2022/04/17 11:42:22;;;;;;;5.63;3.33;;;;;;;13.62;34.90;102529.44;4899039;29;20079;-48
2022/04/17 11:44:50;;;;;;;6.63;3.00;;;;;;;13.73;33.26;102526.88;4900341;29;20456;-49
2022/04/17 11:47:20;;;;;;;6.18;2.85;;;;;;;13.74;34.24;102528.56;4900174;29;20502;-50
2022/04/17 11:49:49;;;;;;;11.27;3.90;;;;;;;13.72;37.25;102523.31;4898969;29;20049;-52
2022/04/17 11:52:21;;;;;;;7.35;3.30;;;;;;;13.73;33.54;102518.66;4900451;29;20048;-50
2022/04/17 11:54:49;;;;;;;7.95;3.00;;;;;;;13.74;35.03;102515.69;4899406;29;20078;-51